Time;durP1;ratioP1;P1;durP2;ratioP2;P2;SDS_P1;SDS_P2;PMS_P1;PMS_P2;Temp;Humidity;BMP_temperature;BMP_pressure;BME280_temperature;BME280_humidity;BME280_pressure;Samples;Min_cycle;Max_cycle;Signal;HPM_P1;HPM_P2
2022/08/26 00:01:25;;;;;;;8.13;4.07;;;;;;;;;;8363081;28;20045;-89
2022/08/26 00:05:29;;;;;;;10.30;3.90;;;;;;;;;;8368087;28;20051;-89
2022/08/26 00:09:32;;;;;;;8.23;3.97;;;;;;;;;;8364688;28;20044;-89
2022/08/26 00:13:36;;;;;;;10.57;4.45;;;;;;;;;;8369794;28;20114;-89
2022/08/26 00:17:39;;;;;;;10.80;4.35;;;;;;;;;;8366465;28;20091;-89
2022/08/26 00:21:43;;;;;;;7.53;4.53;;;;;;;;;;8370042;28;20048;-89
2022/08/26 00:25:45;;;;;;;9.80;4.85;;;;;;;;;;8367962;28;20040;-89
2022/08/26 00:29:48;;;;;;;12.52;4.57;;;;;;;;;;8365099;28;20049;-89
2022/08/26 00:33:50;;;;;;;9.43;4.22;;;;;;;;;;8358132;28;20116;-89
2022/08/26 00:37:55;;;;;;;8.38;4.60;;;;;;;;;;8364617;28;20051;-89
2022/08/26 00:41:58;;;;;;;7.78;3.92;;;;;;;;;;8363512;28;20480;-89
2022/08/26 00:46:07;;;;;;;12.00;4.97;;;;;;;;;;8368747;28;20416;-89
2022/08/26 00:50:13;;;;;;;10.57;4.55;;;;;;;;;;8375188;28;20040;-90
2022/08/26 00:54:20;;;;;;;9.90;4.60;;;;;;;;;;8365296;28;20037;-89
2022/08/26 00:58:25;;;;;;;7.70;4.30;;;;;;;;;;8363370;28;20052;-89
2022/08/26 01:02:27;;;;;;;15.02;4.78;;;;;;;;;;8364213;28;20045;-90
2022/08/26 01:06:30;;;;;;;9.65;4.53;;;;;;;;;;8362537;28;20481;-90
2022/08/26 01:10:35;;;;;;;8.93;4.28;;;;;;;;;;8377017;28;20404;-89
2022/08/26 01:14:39;;;;;;;12.18;4.45;;;;;;;;;;8370515;28;20049;-90
2022/08/26 01:18:43;;;;;;;9.80;4.60;;;;;;;;;;8367003;28;20491;-89
2022/08/26 01:22:56;;;;;;;11.15;4.03;;;;;;;;;;8366548;28;20489;-90
2022/08/26 01:27:03;;;;;;;13.35;5.00;;;;;;;;;;8361801;28;20072;-89
2022/08/26 01:31:10;;;;;;;8.52;4.18;;;;;;;;;;8373067;28;20476;-89
2022/08/26 01:35:12;;;;;;;8.63;4.35;;;;;;;;;;8373068;28;20059;-89
2022/08/26 01:39:17;;;;;;;13.88;4.43;;;;;;;;;;8372026;28;20045;-89
2022/08/26 01:43:24;;;;;;;11.32;5.00;;;;;;;;;;8381398;28;20514;-89
2022/08/26 01:47:29;;;;;;;10.50;4.57;;;;;;;;;;8374502;28;20493;-89
2022/08/26 01:51:35;;;;;;;12.48;5.60;;;;;;;;;;8375645;28;20468;-89
2022/08/26 01:55:42;;;;;;;8.38;4.32;;;;;;;;;;8371268;28;20045;-89
2022/08/26 01:59:46;;;;;;;12.80;4.82;;;;;;;;;;8368357;28;20049;-89
2022/08/26 02:04:05;;;;;;;9.52;4.53;;;;;;;;;;8377602;28;20044;-89
2022/08/26 02:08:08;;;;;;;10.13;4.30;;;;;;;;;;8365086;28;20041;-89
2022/08/26 02:12:15;;;;;;;7.22;4.22;;;;;;;;;;8371979;28;20490;-90
2022/08/26 02:16:21;;;;;;;9.32;4.43;;;;;;;;;;8364757;28;20110;-89
2022/08/26 02:20:24;;;;;;;8.93;4.95;;;;;;;;;;8367353;28;20056;-89
2022/08/26 02:24:29;;;;;;;14.10;4.80;;;;;;;;;;8365650;28;20052;-89
2022/08/26 02:28:39;;;;;;;7.47;3.78;;;;;;;;;;8377821;28;20044;-89
2022/08/26 02:32:41;;;;;;;10.75;4.93;;;;;;;;;;8377112;28;20051;-89
2022/08/26 02:36:44;;;;;;;11.82;4.55;;;;;;;;;;8373543;28;20040;-89
2022/08/26 02:40:47;;;;;;;12.55;4.60;;;;;;;;;;8367296;28;20063;-90
2022/08/26 02:44:50;;;;;;;10.73;4.43;;;;;;;;;;8373920;28;20056;-90
2022/08/26 02:48:53;;;;;;;11.38;4.22;;;;;;;;;;8370598;28;20052;-89
2022/08/26 02:52:55;;;;;;;14.05;4.90;;;;;;;;;;8368011;28;20056;-88
2022/08/26 02:56:58;;;;;;;13.18;4.60;;;;;;;;;;8366543;28;20044;-88
2022/08/26 03:01:02;;;;;;;9.88;4.32;;;;;;;;;;8370595;28;20153;-89
2022/08/26 03:05:06;;;;;;;9.50;4.43;;;;;;;;;;8374268;28;20041;-88
2022/08/26 03:09:09;;;;;;;9.90;4.68;;;;;;;;;;8371864;28;20123;-88
2022/08/26 03:13:11;;;;;;;10.80;5.07;;;;;;;;;;8368026;28;20393;-88
2022/08/26 03:17:16;;;;;;;10.70;4.88;;;;;;;;;;8366331;28;20052;-89
2022/08/26 03:21:20;;;;;;;11.63;4.35;;;;;;;;;;8376173;28;20044;-89
2022/08/26 03:25:23;;;;;;;12.95;4.60;;;;;;;;;;8370705;28;20485;-89
2022/08/26 03:33:54;;;;;;;13.52;6.65;;;;;;;;;;8337513;28;20049;-88
2022/08/26 03:37:56;;;;;;;11.55;5.13;;;;;;;;;;8367068;28;20052;-88
2022/08/26 03:41:59;;;;;;;9.77;4.50;;;;;;;;;;8370655;28;20374;-88
2022/08/26 03:46:04;;;;;;;12.52;4.72;;;;;;;;;;8365948;28;20397;-90
2022/08/26 03:50:13;;;;;;;8.95;4.45;;;;;;;;;;8368476;28;20041;-89
2022/08/26 03:54:16;;;;;;;12.13;4.72;;;;;;;;;;8375382;28;20040;-89
2022/08/26 03:58:19;;;;;;;12.00;4.90;;;;;;;;;;8369231;28;20052;-89
2022/08/26 04:02:25;;;;;;;9.88;4.57;;;;;;;;;;8369987;28;20412;-90
2022/08/26 04:06:31;;;;;;;11.77;4.95;;;;;;;;;;8367637;28;20051;-89
2022/08/26 04:10:34;;;;;;;10.30;4.57;;;;;;;;;;8366391;28;20068;-89
2022/08/26 04:14:38;;;;;;;13.25;4.47;;;;;;;;;;8369068;28;20045;-89
2022/08/26 04:18:41;;;;;;;13.80;5.20;;;;;;;;;;8374460;28;20515;-89
2022/08/26 04:22:45;;;;;;;9.95;4.90;;;;;;;;;;8374561;28;20566;-89
2022/08/26 04:26:48;;;;;;;16.10;5.20;;;;;;;;;;8369086;28;20047;-88
2022/08/26 04:30:50;;;;;;;12.10;5.78;;;;;;;;;;8367209;28;20045;-89
2022/08/26 04:34:53;;;;;;;11.18;5.05;;;;;;;;;;8362599;28;20041;-88
2022/08/26 04:38:57;;;;;;;14.80;5.40;;;;;;;;;;8366434;28;20581;-88
2022/08/26 04:43:00;;;;;;;11.65;5.38;;;;;;;;;;8360747;28;20045;-88
2022/08/26 04:47:03;;;;;;;11.73;5.35;;;;;;;;;;8371699;28;20127;-88
2022/08/26 04:51:06;;;;;;;12.75;5.07;;;;;;;;;;8366735;28;20049;-89
2022/08/26 04:55:10;;;;;;;14.30;5.32;;;;;;;;;;8368636;28;20052;-88
2022/08/26 04:59:16;;;;;;;12.35;5.43;;;;;;;;;;8366860;28;20056;-91
2022/08/26 05:03:19;;;;;;;10.23;5.20;;;;;;;;;;8363319;28;20064;-91
2022/08/26 05:07:22;;;;;;;13.48;5.68;;;;;;;;;;8361755;28;20063;-92
2022/08/26 05:11:26;;;;;;;11.88;4.97;;;;;;;;;;8363208;28;20048;-93
2022/08/26 05:15:29;;;;;;;10.57;5.15;;;;;;;;;;8374508;28;20045;-90
2022/08/26 05:19:31;;;;;;;8.93;4.47;;;;;;;;;;8367221;28;20504;-92
2022/08/26 05:23:36;;;;;;;9.73;4.70;;;;;;;;;;8367062;28;20056;-89
2022/08/26 05:27:39;;;;;;;13.07;6.47;;;;;;;;;;8365105;28;20043;-89
2022/08/26 05:31:43;;;;;;;17.67;10.07;;;;;;;;;;8364042;28;20041;-93
2022/08/26 05:35:46;;;;;;;17.13;7.45;;;;;;;;;;8368637;28;20492;-95
2022/08/26 05:44:21;;;;;;;15.87;5.80;;;;;;;;;;8359010;28;20115;-94
2022/08/26 06:02:50;;;;;;;10.20;4.10;;;;;;;;;;8125499;29;20803;-88
2022/08/26 06:11:45;;;;;;;12.50;4.30;;;;;;;;;;8119977;29;20071;-96
2022/08/26 06:15:50;;;;;;;15.38;6.30;;;;;;;;;;8138175;29;20052;-91
2022/08/26 06:19:54;;;;;;;15.50;5.20;;;;;;;;;;8141252;29;20048;-92
2022/08/26 06:28:19;;;;;;;12.88;4.22;;;;;;;;;;8141113;29;20047;-91
2022/08/26 06:32:22;;;;;;;16.95;8.65;;;;;;;;;;8141322;29;20059;-91
2022/08/26 06:36:29;;;;;;;11.85;4.75;;;;;;;;;;8141004;29;20051;-91
2022/08/26 06:40:32;;;;;;;9.98;3.72;;;;;;;;;;8139240;29;20527;-92
2022/08/26 06:44:36;;;;;;;8.65;3.30;;;;;;;;;;8134660;29;20075;-93
2022/08/26 06:52:51;;;;;;;9.70;3.23;;;;;;;;;;9056440;23;20143;-92
2022/08/26 06:56:55;;;;;;;17.02;3.83;;;;;;;;;;8224430;28;20677;-93
2022/08/26 07:00:58;;;;;;;9.73;3.20;;;;;;;;;;8229305;28;20654;-92
2022/08/26 07:05:01;;;;;;;11.25;3.63;;;;;;;;;;8231738;28;20048;-90
2022/08/26 07:09:07;;;;;;;10.80;3.65;;;;;;;;;;8225580;28;20062;-92
2022/08/26 07:13:11;;;;;;;14.18;3.30;;;;;;;;;;8217895;28;20563;-92
2022/08/26 07:17:13;;;;;;;11.60;3.33;;;;;;;;;;8230864;28;20054;-92
2022/08/26 07:21:17;;;;;;;10.00;3.53;;;;;;;;;;8220951;28;20169;-93
2022/08/26 07:25:21;;;;;;;9.90;3.63;;;;;;;;;;8216095;28;20066;-92
2022/08/26 07:29:24;;;;;;;8.18;2.92;;;;;;;;;;8223078;28;20564;-90
2022/08/26 07:33:27;;;;;;;8.30;3.30;;;;;;;;;;8225127;28;20054;-91
2022/08/26 07:37:29;;;;;;;13.32;3.67;;;;;;;;;;8213696;28;20047;-91
2022/08/26 07:46:45;;;;;;;7.35;3.13;;;;;;;;;;9860067;23;20059;-92
2022/08/26 07:56:16;;;;;;;10.00;3.17;;;;;;;;;;8234506;23;20121;-95
2022/08/26 08:04:43;;;;;;;10.15;3.40;;;;;;;;;;8258963;28;20050;-96
2022/08/26 08:08:46;;;;;;;10.13;3.60;;;;;;;;;;8265761;28;20184;-96
2022/08/26 08:12:50;;;;;;;9.55;3.40;;;;;;;;;;8259664;28;20039;-94
2022/08/26 08:16:53;;;;;;;12.15;3.25;;;;;;;;;;8256547;28;20105;-90
2022/08/26 08:20:59;;;;;;;8.95;3.25;;;;;;;;;;8252672;28;20062;-93
2022/08/26 08:25:02;;;;;;;15.25;2.90;;;;;;;;;;8252769;28;20118;-90
2022/08/26 08:29:06;;;;;;;10.48;3.30;;;;;;;;;;8258504;28;20046;-90
2022/08/26 08:33:10;;;;;;;7.82;3.00;;;;;;;;;;8249982;28;20050;-90
2022/08/26 08:37:18;;;;;;;12.45;3.72;;;;;;;;;;8249120;28;20070;-92
2022/08/26 08:41:30;;;;;;;;;;;;;;;;;;8254798;28;20053;-93
2022/08/26 08:45:36;;;;;;;11.07;3.22;;;;;;;;;;8252080;28;20004;-92
2022/08/26 08:49:39;;;;;;;5.55;3.00;;;;;;;;;;8258974;28;20054;-92
2022/08/26 08:53:45;;;;;;;12.23;3.25;;;;;;;;;;8259326;28;20053;-92
2022/08/26 08:57:56;;;;;;;10.93;3.80;;;;;;;;;;8258307;28;20457;-91
2022/08/26 09:02:09;;;;;;;11.93;3.53;;;;;;;;;;8255459;28;20070;-89
2022/08/26 09:06:17;;;;;;;8.57;3.58;;;;;;;;;;8257221;28;20038;-89
2022/08/26 09:10:36;;;;;;;8.02;3.17;;;;;;;;;;8253546;28;20046;-89
2022/08/26 09:14:41;;;;;;;9.57;3.22;;;;;;;;;;8254211;28;20549;-90
2022/08/26 09:19:00;;;;;;;10.10;3.22;;;;;;;;;;8254091;28;20042;-87
2022/08/26 09:23:03;;;;;;;5.25;2.90;;;;;;;;;;8252089;28;20125;-90
2022/08/26 09:27:07;;;;;;;8.27;2.55;;;;;;;;;;8254776;28;20490;-92
2022/08/26 09:31:13;;;;;;;6.15;2.80;;;;;;;;;;8255557;28;20049;-90
2022/08/26 09:35:28;;;;;;;5.93;2.85;;;;;;;;;;8256975;28;20644;-91
2022/08/26 09:39:36;;;;;;;8.98;2.88;;;;;;;;;;8252028;28;20054;-92
2022/08/26 09:43:40;;;;;;;7.68;2.72;;;;;;;;;;8256456;28;20054;-93
2022/08/26 09:47:57;;;;;;;13.27;3.88;;;;;;;;;;8256188;28;20050;-92
2022/08/26 09:52:17;;;;;;;7.28;2.58;;;;;;;;;;8255777;28;20046;-90
2022/08/26 09:56:27;;;;;;;20.42;10.63;;;;;;;;;;8255487;28;20109;-88
2022/08/26 10:00:33;;;;;;;;;;;;;;;;;;8251542;28;20165;-90
2022/08/26 10:04:37;;;;;;;6.55;2.35;;;;;;;;;;8260966;28;20285;-92
2022/08/26 10:08:53;;;;;;;5.75;2.70;;;;;;;;;;8264237;28;20042;-91
2022/08/26 10:13:10;;;;;;;7.68;2.45;;;;;;;;;;8263686;28;20130;-91
2022/08/26 10:30:19;;;;;;;10.85;2.33;;;;;;;;;;8425550;23;20051;-94
2022/08/26 10:34:24;;;;;;;11.85;2.53;;;;;;;;;;8228981;28;20130;-92
2022/08/26 10:39:04;;;;;;;4.85;2.30;;;;;;;;;;8228673;28;20077;-93
2022/08/26 10:48:42;;;;;;;11.82;2.83;;;;;;;;;;8174764;28;20109;-90
2022/08/26 10:52:58;;;;;;;3.95;1.98;;;;;;;;;;8216997;28;20050;-92
2022/08/26 10:57:14;;;;;;;8.50;2.20;;;;;;;;;;8222513;28;20101;-93
2022/08/26 11:01:45;;;;;;;6.38;2.40;;;;;;;;;;8218720;28;20161;-93
2022/08/26 11:06:18;;;;;;;5.72;2.00;;;;;;;;;;8215041;28;20093;-89
2022/08/26 11:16:11;;;;;;;10.38;2.60;;;;;;;;;;8151137;28;20072;-92
2022/08/26 11:25:14;;;;;;;6.57;2.10;;;;;;;;;;8223102;28;20441;-91
2022/08/26 11:29:56;;;;;;;6.53;2.25;;;;;;;;;;8222698;28;20573;-92
2022/08/26 11:34:00;;;;;;;4.53;2.17;;;;;;;;;;8218010;28;20055;-93
2022/08/26 11:38:19;;;;;;;6.63;2.55;;;;;;;;;;8219980;28;20074;-91
2022/08/26 11:42:33;;;;;;;7.50;2.53;;;;;;;;;;8222045;28;20399;-94
2022/08/26 11:55:24;;;;;;;4.30;2.20;;;;;;;;;;9115222;23;20421;-91
2022/08/26 12:00:02;;;;;;;5.88;2.70;;;;;;;;;;8256884;28;20721;-92
2022/08/26 12:09:23;;;;;;;4.77;2.37;;;;;;;;;;8248888;28;20464;-91
2022/08/26 12:13:26;;;;;;;4.78;2.22;;;;;;;;;;8250029;28;20178;-93
2022/08/26 12:27:17;;;;;;;7.20;2.30;;;;;;;;;;8256996;28;20053;-89
2022/08/26 12:31:25;;;;;;;6.82;2.50;;;;;;;;;;8254395;28;20137;-90
2022/08/26 12:35:30;;;;;;;7.38;2.70;;;;;;;;;;8253004;28;20046;-90
2022/08/26 12:39:36;;;;;;;7.03;2.40;;;;;;;;;;8247869;28;20038;-90
2022/08/26 12:43:43;;;;;;;6.20;2.47;;;;;;;;;;8248076;28;20051;-92
2022/08/26 12:47:46;;;;;;;8.77;3.10;;;;;;;;;;8256211;28;20058;-95
2022/08/26 12:51:51;;;;;;;7.40;2.47;;;;;;;;;;8264502;28;20050;-91
2022/08/26 12:55:56;;;;;;;7.78;2.67;;;;;;;;;;8260479;28;20054;-89
2022/08/26 13:00:30;;;;;;;3.88;2.20;;;;;;;;;;8256444;28;20038;-92
2022/08/26 13:04:36;;;;;;;5.13;2.33;;;;;;;;;;8258493;28;20114;-92
2022/08/26 13:08:42;;;;;;;5.65;2.33;;;;;;;;;;8256310;28;20105;-91
2022/08/26 13:12:45;;;;;;;4.30;2.60;;;;;;;;;;8259746;28;20100;-90
2022/08/26 13:16:48;;;;;;;7.90;2.55;;;;;;;;;;8263274;28;20061;-92
2022/08/26 13:20:52;;;;;;;6.75;2.30;;;;;;;;;;8264901;28;20125;-91
2022/08/26 13:24:57;;;;;;;6.18;2.47;;;;;;;;;;8261036;28;20046;-92
2022/08/26 13:29:00;;;;;;;8.13;2.85;;;;;;;;;;8272361;28;20059;-91
2022/08/26 13:33:02;;;;;;;9.50;2.95;;;;;;;;;;8272307;28;20046;-92
2022/08/26 13:37:07;;;;;;;8.13;2.92;;;;;;;;;;8261900;28;20117;-91
2022/08/26 13:41:11;;;;;;;5.78;2.83;;;;;;;;;;8258782;28;20121;-91
2022/08/26 13:45:14;;;;;;;5.75;2.88;;;;;;;;;;8265123;28;20486;-91
2022/08/26 13:49:19;;;;;;;9.18;3.45;;;;;;;;;;8261166;28;20043;-89
2022/08/26 13:53:23;;;;;;;4.82;2.70;;;;;;;;;;8262783;28;20049;-91
2022/08/26 13:57:29;;;;;;;9.43;3.65;;;;;;;;;;8261707;28;20383;-91
2022/08/26 14:01:33;;;;;;;7.22;3.15;;;;;;;;;;8260372;28;20062;-90
2022/08/26 14:05:35;;;;;;;10.25;3.10;;;;;;;;;;8261994;28;20057;-90
2022/08/26 14:09:38;;;;;;;12.18;3.50;;;;;;;;;;8257925;28;20093;-91
2022/08/26 14:13:43;;;;;;;5.93;3.00;;;;;;;;;;8265488;28;20042;-95
2022/08/26 14:17:48;;;;;;;8.18;3.10;;;;;;;;;;8261704;28;20042;-92
2022/08/26 14:21:50;;;;;;;8.93;2.95;;;;;;;;;;8258474;28;20128;-93
2022/08/26 14:25:54;;;;;;;7.50;2.60;;;;;;;;;;8266723;28;20045;-94
2022/08/26 14:29:58;;;;;;;7.00;3.53;;;;;;;;;;8268410;28;20165;-95
2022/08/26 14:34:03;;;;;;;8.85;3.10;;;;;;;;;;8269304;28;20101;-94
2022/08/26 14:38:06;;;;;;;8.57;3.22;;;;;;;;;;8267339;28;20050;-94
2022/08/26 14:42:10;;;;;;;4.60;2.90;;;;;;;;;;8268173;28;20518;-93
2022/08/26 14:46:14;;;;;;;7.82;3.33;;;;;;;;;;8262644;28;20054;-94
2022/08/26 14:50:21;;;;;;;6.95;3.25;;;;;;;;;;8263243;28;20039;-94
2022/08/26 14:54:24;;;;;;;6.07;3.20;;;;;;;;;;8265321;28;20058;-93
2022/08/26 14:58:26;;;;;;;8.90;3.35;;;;;;;;;;8266457;28;20052;-94
2022/08/26 15:02:30;;;;;;;6.40;3.03;;;;;;;;;;8267260;28;20101;-93
2022/08/26 15:06:34;;;;;;;6.88;3.30;;;;;;;;;;8267637;28;20072;-94
2022/08/26 15:10:37;;;;;;;9.02;3.10;;;;;;;;;;8267087;28;20133;-94
2022/08/26 15:14:40;;;;;;;7.63;3.55;;;;;;;;;;8265192;28;20132;-95
2022/08/26 15:18:44;;;;;;;9.13;3.30;;;;;;;;;;8265718;28;20049;-93
2022/08/26 15:22:46;;;;;;;5.75;3.13;;;;;;;;;;8267241;28;20065;-94
2022/08/26 15:26:50;;;;;;;8.95;3.33;;;;;;;;;;8267334;28;20490;-93
2022/08/26 15:30:52;;;;;;;10.57;3.83;;;;;;;;;;8267475;28;20058;-93
2022/08/26 15:34:57;;;;;;;8.43;3.30;;;;;;;;;;8253261;28;20770;-93
2022/08/26 15:39:01;;;;;;;6.35;3.40;;;;;;;;;;8268248;28;20049;-91
2022/08/26 15:43:05;;;;;;;7.53;3.60;;;;;;;;;;8268177;28;20080;-94
2022/08/26 15:47:08;;;;;;;7.82;3.63;;;;;;;;;;8256360;28;20045;-94
2022/08/26 15:51:21;;;;;;;9.07;3.60;;;;;;;;;;8266216;28;20097;-92
2022/08/26 15:55:24;;;;;;;5.55;3.70;;;;;;;;;;8262391;28;20062;-95
2022/08/26 15:59:26;;;;;;;6.18;3.65;;;;;;;;;;8258977;28;20410;-91
2022/08/26 16:03:29;;;;;;;9.70;3.80;;;;;;;;;;8252328;28;20108;-94
2022/08/26 16:07:33;;;;;;;10.82;3.70;;;;;;;;;;8262483;28;20050;-94
2022/08/26 16:11:36;;;;;;;6.22;3.85;;;;;;;;;;8256496;28;20497;-93
2022/08/26 16:15:39;;;;;;;9.07;4.00;;;;;;;;;;8259894;28;20058;-92
2022/08/26 16:19:42;;;;;;;11.18;4.47;;;;;;;;;;8256679;28;20096;-93
2022/08/26 16:23:47;;;;;;;10.40;4.18;;;;;;;;;;8259580;28;20549;-94
2022/08/26 16:27:50;;;;;;;11.43;4.57;;;;;;;;;;8263837;28;20065;-94
2022/08/26 16:31:53;;;;;;;6.82;3.75;;;;;;;;;;8261411;28;20482;-96
2022/08/26 16:35:56;;;;;;;12.77;4.10;;;;;;;;;;8262516;28;20491;-93
2022/08/26 16:40:05;;;;;;;9.23;4.55;;;;;;;;;;8265124;28;20088;-94
2022/08/26 16:44:10;;;;;;;9.70;4.00;;;;;;;;;;8276128;28;20130;-95
2022/08/26 16:48:17;;;;;;;8.02;4.70;;;;;;;;;;8264618;28;20125;-94
2022/08/26 16:52:20;;;;;;;8.20;4.53;;;;;;;;;;8264778;28;20046;-94
2022/08/26 16:56:26;;;;;;;7.78;4.43;;;;;;;;;;8264092;28;20068;-93
2022/08/26 17:00:32;;;;;;;9.02;4.40;;;;;;;;;;8262891;28;20054;-93
2022/08/26 17:04:34;;;;;;;7.88;4.22;;;;;;;;;;8263801;28;20057;-94
2022/08/26 17:08:38;;;;;;;7.47;3.95;;;;;;;;;;8262848;28;20050;-95
2022/08/26 17:12:42;;;;;;;13.35;5.88;;;;;;;;;;8266112;28;20043;-94
2022/08/26 17:16:45;;;;;;;11.85;5.18;;;;;;;;;;8264002;28;20054;-94
2022/08/26 17:20:47;;;;;;;16.85;5.32;;;;;;;;;;8264670;28;20557;-92
2022/08/26 17:24:50;;;;;;;11.43;4.97;;;;;;;;;;8266172;28;20049;-96
2022/08/26 17:28:54;;;;;;;8.70;4.78;;;;;;;;;;8264660;28;20048;-95
2022/08/26 17:32:57;;;;;;;7.45;4.45;;;;;;;;;;8264822;28;20097;-95
2022/08/26 17:37:00;;;;;;;14.63;6.35;;;;;;;;;;8257576;28;20118;-95
2022/08/26 17:41:03;;;;;;;11.70;6.47;;;;;;;;;;8264292;28;20053;-93
2022/08/26 17:45:08;;;;;;;11.60;7.45;;;;;;;;;;8257403;28;20043;-95
2022/08/26 17:49:10;;;;;;;11.93;7.15;;;;;;;;;;8262914;28;20064;-94
2022/08/26 17:53:13;;;;;;;11.63;7.22;;;;;;;;;;8262656;28;20046;-95
2022/08/26 17:57:16;;;;;;;12.73;7.10;;;;;;;;;;8263308;28;20104;-94
2022/08/26 18:01:20;;;;;;;10.95;6.63;;;;;;;;;;8264467;28;20113;-96
2022/08/26 18:05:23;;;;;;;10.55;5.93;;;;;;;;;;8265091;28;20081;-96
2022/08/26 18:09:26;;;;;;;9.65;5.88;;;;;;;;;;8259404;28;20042;-96
2022/08/26 18:13:30;;;;;;;8.68;5.25;;;;;;;;;;8266999;28;20562;-94
2022/08/26 18:18:09;;;;;;;8.30;4.90;;;;;;;;;;8299587;28;20062;-96
2022/08/26 18:22:54;;;;;;;9.13;6.15;;;;;;;;;;8256210;28;20039;-96
2022/08/26 18:26:58;;;;;;;7.87;5.70;;;;;;;;;;8236247;28;20058;-96
2022/08/26 18:31:19;;;;;;;14.30;7.28;;;;;;;;;;8212999;28;20110;-94
2022/08/26 18:35:29;;;;;;;19.80;12.65;;;;;;;;;;8249165;28;20101;-93
2022/08/26 18:39:41;;;;;;;24.38;14.07;;;;;;;;;;8252377;28;20077;-94
2022/08/26 18:43:49;;;;;;;13.60;8.80;;;;;;;;;;8256669;28;20424;-96
2022/08/26 18:47:53;;;;;;;271.02;139.27;;;;;;;;;;8252752;28;20470;-96
2022/08/26 18:51:59;;;;;;;268.80;136.15;;;;;;;;;;8261300;28;20054;-95
2022/08/26 18:56:09;;;;;;;68.80;36.97;;;;;;;;;;8254315;28;20113;-96
2022/08/26 19:00:15;;;;;;;29.70;17.17;;;;;;;;;;8267436;28;20383;-96
2022/08/26 19:04:29;;;;;;;19.15;11.77;;;;;;;;;;8264808;28;20505;-95
2022/08/26 19:08:36;;;;;;;18.92;10.60;;;;;;;;;;8253210;28;20080;-96
2022/08/26 19:12:48;;;;;;;19.67;11.60;;;;;;;;;;8235552;28;20129;-96
2022/08/26 19:16:54;;;;;;;21.77;14.37;;;;;;;;;;8224908;28;20050;-92
2022/08/26 19:21:04;;;;;;;16.25;10.70;;;;;;;;;;8230283;28;20584;-91
2022/08/26 19:25:16;;;;;;;22.45;13.60;;;;;;;;;;8218978;28;20780;-93
2022/08/26 19:29:44;;;;;;;18.67;8.40;;;;;;;;;;8222941;28;20065;-96
2022/08/26 19:33:59;;;;;;;12.40;8.07;;;;;;;;;;8203157;28;20055;-94
2022/08/26 19:38:05;;;;;;;11.35;8.88;;;;;;;;;;8224445;28;20046;-92
2022/08/26 19:42:11;;;;;;;21.05;12.38;;;;;;;;;;8240864;28;20136;-93
2022/08/26 19:46:25;;;;;;;22.42;12.40;;;;;;;;;;8226849;28;20629;-93
2022/08/26 19:50:36;;;;;;;10.68;7.82;;;;;;;;;;8231507;28;20057;-93
2022/08/26 19:54:43;;;;;;;10.68;7.07;;;;;;;;;;8234166;28;20066;-93
2022/08/26 19:58:48;;;;;;;11.85;8.40;;;;;;;;;;8261894;28;20435;-91
2022/08/26 20:02:56;;;;;;;13.15;8.25;;;;;;;;;;8255041;28;20047;-92
2022/08/26 20:07:13;;;;;;;14.47;8.40;;;;;;;;;;8260116;28;20129;-91
2022/08/26 20:11:22;;;;;;;10.23;7.10;;;;;;;;;;8257865;28;20826;-92
2022/08/26 20:15:27;;;;;;;12.60;7.60;;;;;;;;;;8254543;28;20062;-95
2022/08/26 20:23:53;;;;;;;13.57;8.20;;;;;;;;;;8259091;28;20054;-93
2022/08/26 20:27:56;;;;;;;13.35;7.80;;;;;;;;;;8255533;28;20050;-92
2022/08/26 20:31:58;;;;;;;12.27;6.97;;;;;;;;;;8259783;28;20109;-92
2022/08/26 20:36:04;;;;;;;10.38;6.07;;;;;;;;;;8259219;28;20050;-92
2022/08/26 20:40:08;;;;;;;9.98;6.22;;;;;;;;;;8260584;28;20054;-94
2022/08/26 20:44:12;;;;;;;9.63;6.47;;;;;;;;;;8255685;28;20045;-93
2022/08/26 20:48:14;;;;;;;10.52;6.32;;;;;;;;;;8258471;28;20397;-93
2022/08/26 20:52:18;;;;;;;10.57;6.68;;;;;;;;;;8261551;28;20095;-93
2022/08/26 20:56:23;;;;;;;8.23;5.88;;;;;;;;;;8265423;28;20046;-93
2022/08/26 21:00:26;;;;;;;13.52;7.35;;;;;;;;;;8259801;28;20052;-92
2022/08/26 21:04:29;;;;;;;13.07;7.53;;;;;;;;;;8258341;28;20069;-92
2022/08/26 21:08:34;;;;;;;11.18;6.90;;;;;;;;;;8264586;28;20050;-93
2022/08/26 21:12:36;;;;;;;11.98;7.28;;;;;;;;;;8264124;28;20406;-92
2022/08/26 21:16:41;;;;;;;16.42;7.20;;;;;;;;;;8263318;28;20554;-92
2022/08/26 21:20:43;;;;;;;13.23;7.47;;;;;;;;;;8264588;28;20054;-93
2022/08/26 21:24:47;;;;;;;11.45;7.82;;;;;;;;;;8265492;28;20437;-93
2022/08/26 21:28:50;;;;;;;12.77;7.07;;;;;;;;;;8264671;28;20493;-92
2022/08/26 21:32:53;;;;;;;13.60;7.95;;;;;;;;;;8263616;28;20402;-93
2022/08/26 21:37:14;;;;;;;14.88;7.60;;;;;;;;;;8267295;28;20052;-96
2022/08/26 21:41:21;;;;;;;17.05;7.18;;;;;;;;;;8263381;28;20140;-92
2022/08/26 21:45:24;;;;;;;13.45;8.00;;;;;;;;;;8265578;28;20497;-91
2022/08/26 21:49:27;;;;;;;13.88;7.32;;;;;;;;;;8270304;28;20054;-93
2022/08/26 21:53:30;;;;;;;13.52;7.07;;;;;;;;;;8271197;28;20042;-92
2022/08/26 21:57:35;;;;;;;15.45;7.38;;;;;;;;;;8268634;28;20042;-92
2022/08/26 22:01:37;;;;;;;13.10;7.55;;;;;;;;;;8270692;28;20042;-94
2022/08/26 22:05:43;;;;;;;7.90;5.53;;;;;;;;;;8264899;28;20570;-93
2022/08/26 22:09:46;;;;;;;11.68;7.10;;;;;;;;;;8269579;28;20145;-92
2022/08/26 22:13:50;;;;;;;10.68;6.53;;;;;;;;;;8269729;28;20050;-92
2022/08/26 22:17:53;;;;;;;11.50;7.05;;;;;;;;;;8269778;28;20052;-92
2022/08/26 22:21:56;;;;;;;11.52;6.93;;;;;;;;;;8270292;28;20084;-93
2022/08/26 22:25:59;;;;;;;13.10;6.93;;;;;;;;;;8269375;28;20049;-92
2022/08/26 22:30:03;;;;;;;13.35;7.35;;;;;;;;;;8269889;28;20050;-93
2022/08/26 22:34:08;;;;;;;9.15;6.55;;;;;;;;;;8269533;28;20108;-93
2022/08/26 22:38:12;;;;;;;10.57;6.70;;;;;;;;;;8269844;28;20046;-93
2022/08/26 22:42:14;;;;;;;10.73;6.82;;;;;;;;;;8269677;28;20052;-93
2022/08/26 22:46:20;;;;;;;9.20;6.25;;;;;;;;;;8269711;28;20417;-93
2022/08/26 22:50:23;;;;;;;8.68;5.95;;;;;;;;;;8269233;28;20042;-92
2022/08/26 22:54:26;;;;;;;11.55;6.55;;;;;;;;;;8269008;28;20092;-93
2022/08/26 22:58:29;;;;;;;8.68;6.25;;;;;;;;;;8268236;28;20446;-93
2022/08/26 23:02:33;;;;;;;9.45;5.90;;;;;;;;;;8268960;28;20042;-93
2022/08/26 23:06:37;;;;;;;10.25;6.35;;;;;;;;;;8263571;28;20129;-92
2022/08/26 23:10:41;;;;;;;10.68;6.60;;;;;;;;;;8273274;28;20042;-90
2022/08/26 23:14:43;;;;;;;9.05;6.20;;;;;;;;;;8277659;28;20100;-92
2022/08/26 23:18:49;;;;;;;10.98;6.10;;;;;;;;;;8276792;28;20099;-91
2022/08/26 23:22:52;;;;;;;8.85;5.50;;;;;;;;;;8269863;28;20463;-92
2022/08/26 23:26:55;;;;;;;10.95;6.80;;;;;;;;;;8268856;28;20042;-92
2022/08/26 23:30:58;;;;;;;13.25;7.28;;;;;;;;;;8268427;28;20411;-92
2022/08/26 23:35:02;;;;;;;11.70;8.02;;;;;;;;;;8267071;28;20046;-92
2022/08/26 23:39:06;;;;;;;13.30;7.15;;;;;;;;;;8267603;28;20120;-93
2022/08/26 23:43:10;;;;;;;12.50;7.03;;;;;;;;;;8267097;28;20046;-91
2022/08/26 23:47:13;;;;;;;15.23;7.57;;;;;;;;;;8266979;28;20053;-91
2022/08/26 23:55:39;;;;;;;12.23;6.50;;;;;;;;;;8266384;28;20058;-92
2022/08/26 23:59:41;;;;;;;12.18;6.40;;;;;;;;;;8266897;28;20161;-92
